Time;durP1;ratioP1;P1;durP2;ratioP2;P2;SDS_P1;SDS_P2;PMS_P1;PMS_P2;Temp;Humidity;BMP_temperature;BMP_pressure;BME280_temperature;BME280_humidity;BME280_pressure;Samples;Min_cycle;Max_cycle;Signal;HPM_P1;HPM_P2
2022/03/27 00:02:11;;;;;;;38.40;21.20;;;;;;;7.08;83.33;99247.73;1743440;81;20997;-56
2022/03/27 00:04:38;;;;;;;45.43;22.73;;;;;;;7.03;83.06;99249.77;1742927;82;20983;-56
2022/03/27 00:07:04;;;;;;;38.53;21.33;;;;;;;7.06;81.94;99249.83;1743268;81;21521;-57
2022/03/27 00:09:31;;;;;;;35.90;19.87;;;;;;;7.04;83.09;99255.45;1743154;80;21046;-56
2022/03/27 00:11:58;;;;;;;30.95;18.82;;;;;;;6.95;83.92;99255.99;1743418;82;20975;-56
2022/03/27 00:14:25;;;;;;;36.68;20.52;;;;;;;6.99;82.76;99259.34;1742934;81;21282;-56
2022/03/27 00:16:52;;;;;;;32.28;20.60;;;;;;;6.91;83.91;99257.48;1743228;82;21014;-56
2022/03/27 00:19:20;;;;;;;33.40;18.70;;;;;;;6.93;83.25;99251.36;1755992;80;21244;-57
2022/03/27 00:21:47;;;;;;;38.35;19.45;;;;;;;6.94;83.46;99255.70;1743372;81;20973;-56
2022/03/27 00:24:14;;;;;;;31.68;17.65;;;;;;;6.90;84.25;99259.88;1762805;80;21520;-56
2022/03/27 00:26:40;;;;;;;37.73;19.32;;;;;;;6.81;84.76;99257.19;1743393;81;21056;-56
2022/03/27 00:29:08;;;;;;;33.58;19.70;;;;;;;6.83;84.57;99268.55;1749832;80;21045;-56
2022/03/27 00:31:38;;;;;;;34.35;19.15;;;;;;;6.79;85.00;99268.20;1743357;81;21061;-57
2022/03/27 00:34:05;;;;;;;37.03;18.95;;;;;;;6.79;84.78;99266.84;1742859;81;21014;-56
2022/03/27 00:36:32;;;;;;;36.83;19.77;;;;;;;6.77;85.25;99272.99;1743334;82;21061;-56
2022/03/27 00:38:59;;;;;;;32.38;20.00;;;;;;;6.75;85.46;99272.38;1742984;82;20994;-56
2022/03/27 00:41:26;;;;;;;44.05;22.65;;;;;;;6.75;85.00;99276.41;1743431;82;20997;-56
2022/03/27 00:43:53;;;;;;;32.17;19.10;;;;;;;6.74;84.94;99277.46;1743202;81;21482;-56
2022/03/27 00:46:20;;;;;;;37.75;19.90;;;;;;;6.72;84.98;99280.91;1742952;82;21439;-56
2022/03/27 00:48:47;;;;;;;36.17;19.65;;;;;;;6.68;85.40;99277.03;1742936;81;21053;-56
2022/03/27 00:51:14;;;;;;;32.15;18.82;;;;;;;6.74;84.07;99279.63;1743170;82;21368;-56
2022/03/27 00:53:41;;;;;;;42.30;23.07;;;;;;;6.73;84.81;99283.91;1744515;80;21053;-56
2022/03/27 00:56:08;;;;;;;45.78;23.80;;;;;;;6.73;85.41;99294.15;1743118;82;20986;-57
2022/03/27 00:58:34;;;;;;;37.28;18.92;;;;;;;6.73;85.11;99285.25;1752460;80;22029;-57
2022/03/27 01:01:24;;;;;;;38.38;22.10;;;;;;;6.71;85.16;99295.43;1744456;80;21064;-56
2022/03/27 01:03:54;;;;;;;40.90;22.22;;;;;;;6.74;85.37;99297.14;1730353;80;21466;-56
2022/03/27 01:06:40;;;;;;;;;;;;;;;6.71;85.74;99292.73;1745561;82;20986;-56
2022/03/27 01:12:17;;;;;;;37.15;18.57;;;;;;;6.68;85.83;99290.50;1726304;82;21002;-56
2022/03/27 01:14:46;;;;;;;35.83;20.00;;;;;;;6.63;84.35;99285.77;1743336;82;20994;-56
2022/03/27 01:17:17;;;;;;;40.23;19.60;;;;;;;6.62;83.99;99282.78;1743312;81;21442;-56
2022/03/27 01:19:47;;;;;;;33.73;19.45;;;;;;;6.64;83.84;99287.41;1750279;81;20962;-56
2022/03/27 01:22:14;;;;;;;34.08;19.15;;;;;;;6.66;83.10;99294.73;1744264;80;20997;-56
2022/03/27 01:24:41;;;;;;;38.80;19.90;;;;;;;6.69;83.04;99295.66;1742726;82;21057;-56
2022/03/27 01:27:08;;;;;;;28.23;13.40;;;;;;;6.70;83.60;99297.83;1722101;81;21034;-56
2022/03/27 01:29:35;;;;;;;22.07;12.98;;;;;;;6.70;82.08;99301.88;1744118;81;21402;-56
2022/03/27 01:32:04;;;;;;;20.30;11.83;;;;;;;6.54;76.18;99304.61;1732420;82;20986;-56
2022/03/27 01:34:31;;;;;;;12.05;8.45;;;;;;;6.57;77.37;99296.08;1751945;80;21415;-56
2022/03/27 01:37:06;;;;;;;14.40;8.30;;;;;;;6.44;70.88;99301.61;1743211;82;21000;-56
2022/03/27 01:39:33;;;;;;;11.30;7.45;;;;;;;6.35;67.94;99299.72;1743061;82;21454;-56
2022/03/27 01:42:00;;;;;;;13.13;7.15;;;;;;;6.38;70.62;99301.14;1743340;82;21406;-56
2022/03/27 01:44:27;;;;;;;11.73;6.53;;;;;;;6.30;67.65;99307.63;1760827;80;21033;-56
2022/03/27 01:46:55;;;;;;;11.45;6.78;;;;;;;6.24;65.88;99312.57;1773876;80;21009;-56
2022/03/27 01:49:22;;;;;;;12.30;6.50;;;;;;;6.20;66.10;99314.03;1745538;80;20958;-56
2022/03/27 01:51:49;;;;;;;12.10;6.55;;;;;;;6.16;65.21;99312.84;1743389;81;21056;-56
2022/03/27 01:54:19;;;;;;;14.70;7.67;;;;;;;6.03;64.46;99319.14;1751646;80;22021;-56
2022/03/27 01:56:45;;;;;;;13.62;5.80;;;;;;;5.90;60.94;99319.22;1773759;80;21033;-56
2022/03/27 01:59:12;;;;;;;13.68;5.12;;;;;;;5.80;60.30;99321.02;1747614;80;21049;-56
2022/03/27 02:01:39;;;;;;;24.00;6.72;;;;;;;5.69;59.93;99327.62;1743017;81;21033;-56
2022/03/27 02:04:06;;;;;;;10.38;5.30;;;;;;;5.61;60.55;99332.20;1742896;82;21001;-56
2022/03/27 02:06:37;;;;;;;9.35;4.87;;;;;;;5.52;60.34;99330.81;1743248;82;21329;-56
2022/03/27 02:09:03;;;;;;;9.00;4.58;;;;;;;5.37;58.58;99331.61;1742811;81;21502;-56
2022/03/27 02:11:30;;;;;;;7.55;4.10;;;;;;;5.26;59.58;99344.38;1742915;82;21014;-56
2022/03/27 02:13:57;;;;;;;9.38;4.92;;;;;;;5.28;62.06;99342.30;1742818;81;21002;-57
2022/03/27 02:16:24;;;;;;;7.37;4.20;;;;;;;5.21;62.49;99346.37;1743126;82;21061;-56
2022/03/27 02:18:51;;;;;;;7.47;4.50;;;;;;;5.17;61.36;99349.17;1744733;80;21442;-56
2022/03/27 02:21:17;;;;;;;9.80;4.08;;;;;;;5.16;63.12;99348.87;1773664;80;20965;-56
2022/03/27 02:23:44;;;;;;;13.10;5.47;;;;;;;5.10;62.83;99352.39;1753771;80;21419;-56
2022/03/27 02:26:11;;;;;;;11.53;4.50;;;;;;;5.00;62.36;99358.73;1773717;80;20985;-56
2022/03/27 02:28:39;;;;;;;10.35;4.90;;;;;;;4.97;62.59;99362.67;1756382;80;21042;-56
2022/03/27 02:31:08;;;;;;;9.03;4.12;;;;;;;4.90;62.87;99372.61;1773630;80;21439;-56
2022/03/27 02:33:36;;;;;;;;;;;;;;;4.87;63.30;99373.52;1757828;80;21514;-56
2022/03/27 02:36:06;;;;;;;12.68;4.70;;;;;;;4.83;61.95;99375.81;1742896;82;20167;-56
2022/03/27 02:38:34;;;;;;;10.93;4.90;;;;;;;4.83;62.92;99380.36;1744167;81;21061;-56
2022/03/27 02:41:01;;;;;;;6.78;3.85;;;;;;;4.73;62.91;99380.28;1743323;82;21062;-56
2022/03/27 02:43:28;;;;;;;9.60;3.62;;;;;;;4.64;61.12;99386.08;1750767;80;21476;-56
2022/03/27 02:45:55;;;;;;;6.40;3.30;;;;;;;4.59;60.41;99394.74;1745618;80;20977;-56
2022/03/27 02:48:22;;;;;;;10.00;4.40;;;;;;;4.58;60.93;99397.13;1743208;81;21002;-56
2022/03/27 02:50:49;;;;;;;7.95;3.60;;;;;;;4.57;62.34;99401.36;1743160;81;21387;-56
2022/03/27 02:53:15;;;;;;;8.05;3.60;;;;;;;4.54;62.55;99401.27;1743265;82;22114;-56
2022/03/27 02:55:42;;;;;;;10.32;3.60;;;;;;;4.50;60.10;99413.44;1743401;82;21045;-56
2022/03/27 02:58:09;;;;;;;8.03;4.12;;;;;;;4.46;61.74;99410.35;1743144;81;21018;-56
2022/03/27 03:00:37;;;;;;;9.48;4.40;;;;;;;4.43;61.58;99408.06;1743306;82;21069;-56
2022/03/27 03:03:04;;;;;;;6.35;4.28;;;;;;;4.41;62.20;99411.47;1745924;80;20995;-56
2022/03/27 03:05:31;;;;;;;8.13;4.08;;;;;;;4.36;61.88;99415.31;1751349;80;21044;-56
2022/03/27 03:07:58;;;;;;;7.35;3.50;;;;;;;4.22;60.29;99419.83;1743197;81;21149;-56
2022/03/27 03:10:25;;;;;;;10.30;3.92;;;;;;;4.10;60.71;99415.25;1764774;80;21049;-56
2022/03/27 03:12:52;;;;;;;6.80;3.70;;;;;;;4.04;61.98;99420.11;1771823;80;21044;-56
2022/03/27 03:15:19;;;;;;;9.78;4.85;;;;;;;3.97;62.39;99413.38;1743386;82;20997;-56
2022/03/27 03:17:46;;;;;;;8.98;4.90;;;;;;;3.89;62.84;99422.95;1743240;82;21064;-56
2022/03/27 03:20:14;;;;;;;9.05;4.35;;;;;;;3.79;63.69;99426.03;1754721;80;21416;-56
2022/03/27 03:22:41;;;;;;;7.33;4.70;;;;;;;3.72;63.63;99425.69;1744943;80;21084;-56
2022/03/27 03:25:09;;;;;;;9.08;5.35;;;;;;;3.64;63.96;99422.16;1743079;81;20998;-56
2022/03/27 03:27:36;;;;;;;13.15;5.92;;;;;;;3.54;65.14;99423.56;1744654;80;21056;-56
2022/03/27 03:30:07;;;;;;;16.40;6.75;;;;;;;3.40;66.20;99424.00;1760540;80;20946;-56
2022/03/27 03:32:35;;;;;;;13.22;5.33;;;;;;;3.22;68.09;99430.41;1733656;82;21555;-56
2022/03/27 03:35:05;;;;;;;7.50;3.83;;;;;;;3.15;66.00;99422.84;1755728;80;20986;-56
2022/03/27 03:37:32;;;;;;;10.55;4.67;;;;;;;3.09;66.06;99431.18;1742775;82;22158;-56
2022/03/27 03:39:59;;;;;;;10.75;5.58;;;;;;;3.02;65.51;99428.45;1743230;82;21061;-56
2022/03/27 03:42:26;;;;;;;19.02;7.97;;;;;;;2.92;65.79;99427.98;1743292;81;21102;-56
2022/03/27 03:44:53;;;;;;;9.08;5.45;;;;;;;2.77;68.68;99431.27;1754336;80;21293;-56
2022/03/27 03:47:20;;;;;;;11.10;4.55;;;;;;;2.63;69.11;99434.86;1745456;80;21419;-56
2022/03/27 03:49:47;;;;;;;11.75;4.47;;;;;;;2.54;69.57;99440.35;1749185;80;21054;-56
2022/03/27 03:52:14;;;;;;;10.80;5.22;;;;;;;2.45;69.43;99439.34;1742884;81;21013;-56
2022/03/27 03:54:41;;;;;;;11.70;4.97;;;;;;;2.34;70.12;99439.88;1741292;82;21034;-56
2022/03/27 03:57:08;;;;;;;15.55;7.25;;;;;;;2.23;69.26;99436.70;1743067;82;22075;-56
2022/03/27 03:59:36;;;;;;;13.72;5.60;;;;;;;2.16;68.97;99441.67;1743236;82;21013;-56
2022/03/27 04:02:08;;;;;;;12.37;6.78;;;;;;;2.13;68.33;99444.70;1742965;82;21103;-56
2022/03/27 04:04:34;;;;;;;11.57;5.80;;;;;;;2.01;68.83;99441.72;1742926;80;21018;-56
2022/03/27 04:07:01;;;;;;;15.67;6.23;;;;;;;1.99;69.02;99438.41;1743477;82;20994;-56
2022/03/27 04:09:29;;;;;;;20.88;9.28;;;;;;;1.89;69.34;99449.93;1743093;81;21257;-56
2022/03/27 04:11:56;;;;;;;16.45;7.33;;;;;;;1.72;70.16;99449.33;1742963;82;21006;-56
2022/03/27 04:14:23;;;;;;;15.40;7.45;;;;;;;1.60;69.50;99453.48;1742942;82;20995;-56
2022/03/27 04:16:50;;;;;;;10.70;5.70;;;;;;;1.53;71.58;99461.41;1743139;82;21034;-56
2022/03/27 04:19:17;;;;;;;11.70;4.97;;;;;;;1.40;70.24;99463.41;1754290;80;20989;-56
2022/03/27 04:21:44;;;;;;;8.73;4.28;;;;;;;1.28;74.76;99464.05;1743269;81;22102;-56
2022/03/27 04:24:11;;;;;;;7.33;3.42;;;;;;;1.20;73.17;99465.00;1742813;82;20986;-56
2022/03/27 04:26:40;;;;;;;8.23;3.72;;;;;;;1.07;74.38;99465.63;1743163;82;21506;-58
2022/03/27 04:29:07;;;;;;;6.97;3.25;;;;;;;0.93;75.75;99474.44;1743063;81;23673;-58
2022/03/27 04:31:34;;;;;;;9.60;3.60;;;;;;;0.86;73.65;99476.20;1743193;81;20994;-59
2022/03/27 04:34:01;;;;;;;10.25;4.47;;;;;;;0.73;73.84;99482.15;1743213;82;21688;-58
2022/03/27 04:36:28;;;;;;;8.40;5.03;;;;;;;0.69;72.71;99479.53;1741890;82;21438;-58
2022/03/27 04:38:55;;;;;;;6.40;3.55;;;;;;;0.69;76.11;99478.70;1741312;81;20970;-58
2022/03/27 04:41:22;;;;;;;25.65;10.53;;;;;;;0.63;77.87;99484.25;1743328;82;21051;-59
2022/03/27 04:43:49;;;;;;;13.83;5.58;;;;;;;0.55;78.34;99488.31;1742959;81;20962;-58
2022/03/27 04:46:16;;;;;;;15.78;7.25;;;;;;;0.49;78.71;99493.03;1743360;82;21374;-59
2022/03/27 04:48:43;;;;;;;16.48;7.12;;;;;;;0.46;77.66;99485.39;1742924;81;20987;-58
2022/03/27 04:51:10;;;;;;;10.08;5.50;;;;;;;0.40;78.41;99502.10;1743068;82;21506;-58
2022/03/27 04:53:37;;;;;;;47.03;17.42;;;;;;;0.31;78.49;99500.00;1742868;81;21017;-58
2022/03/27 04:56:05;;;;;;;46.73;17.73;;;;;;;0.32;75.90;99502.16;1773159;80;20985;-58
2022/03/27 04:58:32;;;;;;;18.90;9.68;;;;;;;0.34;74.68;99509.47;1747894;80;21432;-58
2022/03/27 05:00:59;;;;;;;14.70;6.12;;;;;;;0.26;76.64;99523.21;1745099;80;21002;-59
2022/03/27 05:03:26;;;;;;;9.20;4.67;;;;;;;0.24;77.33;99525.20;1743096;81;21510;-58
2022/03/27 05:05:53;;;;;;;12.98;5.60;;;;;;;0.24;74.98;99525.20;1743165;82;21009;-58
2022/03/27 05:08:20;;;;;;;14.80;6.87;;;;;;;0.23;75.47;99527.55;1743189;81;20990;-58
2022/03/27 05:10:47;;;;;;;16.07;7.13;;;;;;;0.22;75.92;99523.73;1743227;82;21431;-58
2022/03/27 05:13:14;;;;;;;11.68;6.28;;;;;;;0.21;78.30;99528.23;1748015;80;21025;-58
2022/03/27 05:15:41;;;;;;;11.78;4.95;;;;;;;0.26;78.79;99535.72;1748766;80;20947;-58
2022/03/27 05:18:08;;;;;;;14.87;5.70;;;;;;;0.31;77.48;99526.66;1743055;82;20954;-58
2022/03/27 05:20:41;;;;;;;11.93;4.97;;;;;;;0.32;76.67;99525.66;1743166;82;21057;-58
2022/03/27 05:23:08;;;;;;;18.30;7.33;;;;;;;0.36;77.28;99528.30;1742956;82;22017;-58
2022/03/27 05:25:44;;;;;;;15.80;6.15;;;;;;;0.42;77.17;99527.58;1743215;82;21545;-57
2022/03/27 05:28:10;;;;;;;20.65;10.68;;;;;;;0.50;77.15;99532.02;1742968;81;21085;-58
2022/03/27 05:30:37;;;;;;;21.68;8.63;;;;;;;0.59;76.33;99535.45;1743148;82;21415;-59
2022/03/27 05:33:05;;;;;;;13.10;6.22;;;;;;;0.70;77.35;99542.55;1743016;82;21025;-58
2022/03/27 05:35:32;;;;;;;13.60;5.55;;;;;;;0.99;78.87;99537.79;1766489;80;21590;-58
2022/03/27 05:37:59;;;;;;;12.58;6.50;;;;;;;1.33;77.68;99535.12;1755274;80;20993;-58
2022/03/27 05:40:26;;;;;;;15.63;6.37;;;;;;;1.59;77.25;99539.49;1743444;82;20982;-59
2022/03/27 05:42:53;;;;;;;12.82;5.47;;;;;;;1.67;77.04;99539.40;1742989;81;21041;-58
2022/03/27 05:45:21;;;;;;;9.83;5.50;;;;;;;1.66;76.72;99547.09;1743325;82;20954;-58
2022/03/27 05:47:48;;;;;;;16.50;6.87;;;;;;;1.56;77.66;99545.22;1743017;82;21335;-58
2022/03/27 05:50:18;;;;;;;16.97;7.28;;;;;;;1.56;76.24;99550.56;1742971;82;21010;-58
2022/03/27 05:52:45;;;;;;;15.13;8.00;;;;;;;1.50;75.81;99559.30;1743031;82;20998;-58
2022/03/27 05:55:12;;;;;;;15.15;7.25;;;;;;;1.49;75.58;99562.16;1743239;82;21489;-59
2022/03/27 05:57:41;;;;;;;14.33;8.05;;;;;;;1.41;77.20;99563.91;1743085;81;21491;-59
2022/03/27 06:00:12;;;;;;;14.75;7.22;;;;;;;1.51;77.29;99562.80;1743446;82;22060;-59
2022/03/27 06:02:39;;;;;;;20.08;7.25;;;;;;;1.61;76.19;99558.01;1742660;81;21022;-58
2022/03/27 06:05:08;;;;;;;12.90;6.22;;;;;;;1.58;77.09;99562.39;1743558;82;21021;-59
2022/03/27 06:07:43;;;;;;;13.25;6.25;;;;;;;1.72;76.46;99560.75;1743259;81;23648;-59
2022/03/27 06:10:11;;;;;;;15.23;7.00;;;;;;;1.81;75.69;99567.14;1743185;82;20958;-59
2022/03/27 06:12:39;;;;;;;15.38;8.38;;;;;;;1.91;75.48;99566.85;1743144;81;21547;-58
2022/03/27 06:15:08;;;;;;;16.35;7.03;;;;;;;2.15;75.95;99571.89;1742874;82;21920;-56
2022/03/27 06:17:40;;;;;;;12.07;6.83;;;;;;;2.50;75.32;99575.57;1743060;82;22353;-56
2022/03/27 06:20:09;;;;;;;17.73;6.35;;;;;;;2.96;74.72;99577.03;1743034;82;20994;-56
2022/03/27 06:22:35;;;;;;;11.55;5.92;;;;;;;3.33;72.86;99574.53;1723740;80;21037;-56
2022/03/27 06:25:03;;;;;;;13.40;6.50;;;;;;;3.48;71.49;99582.48;1743214;82;21401;-56
2022/03/27 06:27:30;;;;;;;15.48;6.65;;;;;;;3.61;72.65;99588.77;1743186;82;21450;-56
2022/03/27 06:29:57;;;;;;;16.70;6.62;;;;;;;3.72;71.60;99578.00;1750387;80;20950;-56
2022/03/27 06:32:27;;;;;;;11.00;6.58;;;;;;;3.80;69.92;99594.44;1742857;81;21132;-56
2022/03/27 06:34:57;;;;;;;12.75;5.58;;;;;;;3.90;70.67;99584.17;1743207;82;21612;-56
2022/03/27 06:37:26;;;;;;;12.23;5.75;;;;;;;3.93;70.92;99589.13;1744482;81;21409;-56
2022/03/27 06:39:54;;;;;;;21.62;8.90;;;;;;;3.95;70.82;99591.13;1758592;80;21050;-56
2022/03/27 06:42:22;;;;;;;14.30;6.60;;;;;;;3.93;70.55;99587.80;1743080;82;20993;-56
2022/03/27 06:44:49;;;;;;;12.33;4.78;;;;;;;4.01;70.21;99594.33;1743280;82;20979;-56
2022/03/27 06:47:16;;;;;;;16.45;7.15;;;;;;;4.49;69.85;99599.18;1743006;81;21013;-56
2022/03/27 06:49:43;;;;;;;21.30;7.30;;;;;;;4.80;68.44;99598.64;1750823;81;20994;-56
2022/03/27 06:52:10;;;;;;;12.80;6.75;;;;;;;5.12;68.11;99601.55;1742681;81;21044;-56
2022/03/27 06:54:37;;;;;;;13.68;6.37;;;;;;;5.72;67.51;99592.93;1761494;80;21028;-56
2022/03/27 06:57:04;;;;;;;8.10;5.12;;;;;;;6.31;67.04;99592.47;1773763;80;21001;-56
2022/03/27 07:05:03;;;;;;;20.68;12.47;;;;;;;7.36;61.65;99589.64;1743226;82;21443;-56
2022/03/27 07:07:30;;;;;;;10.88;6.10;;;;;;;7.84;60.37;99591.66;1744541;80;21002;-56
2022/03/27 07:09:57;;;;;;;8.88;4.92;;;;;;;8.05;59.91;99588.53;1758516;80;20966;-56
2022/03/27 07:12:25;;;;;;;14.13;6.20;;;;;;;8.31;57.11;99587.39;1770376;80;21474;-57
2022/03/27 07:14:52;;;;;;;12.78;6.03;;;;;;;8.52;56.36;99586.62;1754898;80;21114;-56
2022/03/27 07:17:19;;;;;;;15.83;5.85;;;;;;;8.70;54.37;99594.16;1743003;81;20974;-56
2022/03/27 07:19:46;;;;;;;16.55;5.33;;;;;;;9.17;53.08;99590.25;1743231;82;21018;-56
2022/03/27 07:22:14;;;;;;;9.78;3.30;;;;;;;9.95;52.71;99589.63;1743018;82;21002;-56
2022/03/27 07:24:41;;;;;;;6.05;3.27;;;;;;;10.51;47.01;99585.39;1751085;81;20998;-56
2022/03/27 07:27:08;;;;;;;7.22;3.67;;;;;;;10.30;46.96;99587.70;1743132;82;21904;-56
2022/03/27 07:29:37;;;;;;;11.75;5.80;;;;;;;10.23;41.98;99592.44;1748204;81;20986;-56
2022/03/27 07:32:07;;;;;;;11.95;7.28;;;;;;;9.86;42.43;99597.30;1743340;81;21041;-56
2022/03/27 07:34:35;;;;;;;6.72;4.08;;;;;;;9.36;38.50;99601.80;1743110;81;21009;-56
2022/03/27 07:37:03;;;;;;;5.00;3.02;;;;;;;8.86;34.79;99602.69;1743354;81;21468;-56
2022/03/27 07:39:30;;;;;;;27.07;18.55;;;;;;;9.98;38.65;99600.80;1743493;82;21057;-56
2022/03/27 07:41:57;;;;;;;41.55;25.35;;;;;;;10.28;36.42;99598.50;1743299;82;21506;-56
2022/03/27 07:44:24;;;;;;;160.25;107.78;;;;;;;10.86;32.18;99610.50;1762757;80;20966;-56
2022/03/27 07:46:52;;;;;;;42.70;28.07;;;;;;;12.00;34.37;99604.78;1774058;80;21029;-56
2022/03/27 07:49:19;;;;;;;111.55;77.35;;;;;;;12.50;29.97;99596.19;1747512;80;21049;-56
2022/03/27 07:51:46;;;;;;;5.47;3.02;;;;;;;12.55;32.83;99607.92;1743288;81;22234;-56
2022/03/27 07:54:13;;;;;;;11.18;4.15;;;;;;;11.84;29.92;99601.02;1754297;80;21005;-56
2022/03/27 07:56:41;;;;;;;9.98;9.08;;;;;;;13.61;27.80;99606.00;1742352;80;33296;-56
2022/03/27 07:59:08;;;;;;;7.30;5.95;;;;;;;13.39;28.06;99597.91;1746497;80;21018;-56
2022/03/27 08:01:35;;;;;;;2.65;1.75;;;;;;;13.64;27.81;99602.73;1774015;80;21001;-56
2022/03/27 08:04:02;;;;;;;4.60;1.82;;;;;;;14.87;25.63;99604.20;1761252;80;21021;-56
2022/03/27 08:06:31;;;;;;;6.70;3.20;;;;;;;14.39;24.46;99603.45;1774192;80;21037;-57
2022/03/27 08:08:57;;;;;;;;;;;;;;;14.26;25.53;99606.11;1753295;80;20990;-57
2022/03/27 08:11:24;;;;;;;9.38;5.30;;;;;;;15.11;24.92;99611.33;1743426;82;20847;-56
2022/03/27 08:13:51;;;;;;;4.08;2.50;;;;;;;15.20;26.03;99614.61;1742967;81;21522;-57
2022/03/27 08:16:18;;;;;;;7.47;1.52;;;;;;;16.47;24.29;99613.66;1743360;82;21318;-57
2022/03/27 08:18:45;;;;;;;10.38;2.22;;;;;;;16.58;24.13;99613.91;1763357;80;21536;-57
2022/03/27 08:21:12;;;;;;;5.30;2.70;;;;;;;16.01;21.00;99600.13;1774055;80;21044;-57
2022/03/27 08:23:39;;;;;;;1.67;1.10;;;;;;;16.79;23.75;99606.42;1773706;80;20962;-57
2022/03/27 08:28:52;;;;;;;5.08;1.70;;;;;;;17.95;23.27;99601.19;1757228;80;21574;-57
2022/03/27 08:31:19;;;;;;;4.10;1.60;;;;;;;17.71;19.01;99599.77;1743192;82;21407;-57
2022/03/27 08:33:46;;;;;;;5.75;2.17;;;;;;;18.80;22.81;99595.52;1742662;81;21475;-57
2022/03/27 08:36:13;;;;;;;5.10;1.95;;;;;;;18.75;22.01;99601.09;1740061;81;21037;-57
2022/03/27 08:38:40;;;;;;;2.72;1.50;;;;;;;18.64;20.19;99600.39;1697840;84;21017;-57
2022/03/27 08:41:07;;;;;;;2.80;1.30;;;;;;;19.24;20.31;99599.28;1743460;81;21342;-57
2022/03/27 08:43:34;;;;;;;13.10;4.53;;;;;;;20.04;19.26;99595.46;1742036;82;20990;-57
2022/03/27 08:46:01;;;;;;;2.75;1.57;;;;;;;20.53;16.68;99595.36;1742256;82;22052;-57
2022/03/27 08:48:31;;;;;;;3.47;1.50;;;;;;;18.97;18.78;99595.84;1741761;82;21061;-57
2022/03/27 08:51:08;;;;;;;2.87;1.67;;;;;;;19.79;19.09;99588.48;1743312;82;21414;-57
2022/03/27 08:53:45;;;;;;;14.63;6.83;;;;;;;19.90;17.71;99587.73;1752619;80;22141;-57
2022/03/27 08:56:12;;;;;;;9.23;6.08;;;;;;;21.27;18.45;99579.37;1773733;80;21603;-57
2022/03/27 08:58:40;;;;;;;2.62;1.05;;;;;;;21.87;17.91;99572.05;1772316;80;21045;-57
2022/03/27 09:01:08;;;;;;;3.00;1.82;;;;;;;19.66;18.55;99568.11;1773918;80;20998;-57
2022/03/27 09:03:35;;;;;;;3.30;1.77;;;;;;;17.72;18.87;99571.80;1762972;79;20994;-57
2022/03/27 09:06:01;;;;;;;2.70;1.05;;;;;;;16.84;18.46;99572.75;1743220;81;21412;-56
2022/03/27 09:08:32;;;;;;;4.25;1.30;;;;;;;14.67;20.71;99570.30;1743061;81;21478;-56
2022/03/27 09:11:01;;;;;;;4.28;1.40;;;;;;;13.86;20.52;99570.48;1743279;82;21443;-56
2022/03/27 09:13:27;;;;;;;;;;;;;;;12.55;19.95;99578.01;1752910;80;21437;-56
2022/03/27 09:16:02;;;;;;;3.12;1.50;;;;;;;11.83;21.98;99573.58;1743477;81;20161;-56
2022/03/27 09:18:55;;;;;;;2.30;0.95;;;;;;;11.65;22.50;99571.64;1744555;80;21458;-56
2022/03/27 09:21:26;;;;;;;1.90;1.00;;;;;;;11.33;23.12;99568.70;1743322;81;20959;-56
2022/03/27 09:23:59;;;;;;;5.35;1.98;;;;;;;11.21;23.64;99564.19;1744585;80;20997;-56
2022/03/27 09:26:27;;;;;;;3.05;1.10;;;;;;;10.98;24.11;99562.44;1773993;80;21056;-56
2022/03/27 09:29:08;;;;;;;4.17;1.40;;;;;;;10.75;22.87;99559.84;1755757;80;21016;-56
2022/03/27 09:31:35;;;;;;;6.55;1.25;;;;;;;10.28;24.20;99549.20;1743304;82;22087;-56
2022/03/27 09:34:02;;;;;;;2.35;1.42;;;;;;;9.79;25.15;99556.80;1742770;81;21010;-56
2022/03/27 09:36:35;;;;;;;2.35;1.10;;;;;;;9.85;24.61;99557.22;1744388;82;21005;-56
2022/03/27 09:39:17;;;;;;;3.55;1.00;;;;;;;9.76;24.68;99552.41;1751560;80;20975;-56
2022/03/27 09:41:48;;;;;;;2.17;1.00;;;;;;;9.76;24.54;99546.99;1743346;82;20978;-56
2022/03/27 09:44:19;;;;;;;2.83;1.92;;;;;;;9.55;24.05;99545.16;1741826;81;21437;-56
2022/03/27 09:47:02;;;;;;;3.47;1.87;;;;;;;9.31;24.32;99547.06;1743348;81;20990;-56
2022/03/27 09:49:37;;;;;;;3.33;1.52;;;;;;;9.35;24.98;99543.35;1742778;81;21017;-55
2022/03/27 09:52:15;;;;;;;3.75;1.22;;;;;;;9.38;24.93;99537.99;1743385;80;21114;-55
2022/03/27 09:54:58;;;;;;;3.83;1.90;;;;;;;9.32;24.67;99533.02;1739168;80;21068;-56
2022/03/27 09:57:32;;;;;;;2.52;1.65;;;;;;;9.32;25.39;99530.30;1735475;80;22320;-55
2022/03/27 10:00:20;;;;;;;2.45;1.12;;;;;;;9.25;25.78;99537.17;1746727;80;20971;-56
2022/03/27 10:02:49;;;;;;;3.00;1.60;;;;;;;9.27;25.70;99533.70;1743315;82;21636;-56
2022/03/27 10:05:21;;;;;;;6.03;1.32;;;;;;;9.27;25.36;99529.64;1754926;81;20993;-56
2022/03/27 10:07:53;;;;;;;3.25;1.20;;;;;;;9.18;25.87;99531.58;1765091;80;21040;-56
2022/03/27 10:10:22;;;;;;;3.35;1.60;;;;;;;9.27;26.17;99527.47;1773949;80;20974;-55
2022/03/27 10:12:51;;;;;;;;;;;;;;;9.33;26.59;99523.83;1769000;80;20986;-56
2022/03/27 10:15:27;;;;;;;2.17;0.90;;;;;;;9.37;26.35;99517.41;1763133;80;20164;-56
2022/03/27 10:18:05;;;;;;;3.75;1.25;;;;;;;9.26;26.61;99514.47;1765617;79;20986;-55
2022/03/27 10:20:35;;;;;;;3.02;1.70;;;;;;;9.20;25.90;99520.81;1742544;81;21006;-56
2022/03/27 10:23:08;;;;;;;2.60;1.20;;;;;;;8.85;26.46;99524.82;1745383;80;21403;-55
2022/03/27 10:25:41;;;;;;;3.17;1.40;;;;;;;8.49;25.24;99527.13;1750708;80;21049;-56
2022/03/27 10:28:08;;;;;;;2.77;1.10;;;;;;;8.43;26.24;99528.86;1743102;80;21375;-56
2022/03/27 10:30:35;;;;;;;2.20;1.02;;;;;;;8.54;26.73;99527.25;1766511;80;20980;-56
2022/03/27 10:33:02;;;;;;;2.37;1.40;;;;;;;8.53;26.81;99530.19;1762485;80;20983;-56
2022/03/27 10:36:04;;;;;;;4.10;1.42;;;;;;;8.50;26.96;99534.18;1743309;82;21429;-56
2022/03/27 10:38:52;;;;;;;2.12;1.05;;;;;;;8.64;27.00;99524.84;1742960;80;20982;-56
2022/03/27 10:41:30;;;;;;;2.90;1.00;;;;;;;8.74;27.33;99518.87;1743295;82;20973;-56
2022/03/27 10:44:14;;;;;;;2.60;1.47;;;;;;;8.93;27.17;99518.26;1683421;83;21086;-56
2022/03/27 10:46:46;;;;;;;3.22;1.02;;;;;;;8.97;26.54;99515.38;1719499;82;21009;-56
2022/03/27 10:49:15;;;;;;;3.25;1.32;;;;;;;8.98;27.22;99504.87;1742543;82;22107;-56
2022/03/27 10:51:44;;;;;;;5.97;1.42;;;;;;;9.10;26.69;99492.71;1743270;82;21045;-56
2022/03/27 10:54:18;;;;;;;3.20;1.55;;;;;;;9.22;27.30;99488.94;1742901;81;20998;-56
2022/03/27 10:56:49;;;;;;;3.90;1.27;;;;;;;9.36;27.24;99493.59;1743057;82;21001;-56
2022/03/27 10:59:26;;;;;;;4.72;1.57;;;;;;;9.50;27.11;99495.54;1742946;81;20994;-56
2022/03/27 11:01:57;;;;;;;3.27;1.80;;;;;;;9.58;27.20;99485.17;1743185;82;21498;-56
2022/03/27 11:04:41;;;;;;;2.65;1.32;;;;;;;9.68;27.17;99478.33;1742715;81;21054;-56
2022/03/27 11:07:20;;;;;;;4.37;1.65;;;;;;;9.71;26.21;99477.31;1743240;81;20993;-56
2022/03/27 11:09:47;;;;;;;2.25;1.17;;;;;;;9.79;26.59;99473.41;1750790;81;21013;-56
2022/03/27 11:12:31;;;;;;;3.45;2.10;;;;;;;9.84;26.23;99474.88;1743235;82;21088;-56
2022/03/27 11:15:07;;;;;;;4.10;2.30;;;;;;;9.77;26.27;99469.59;1743305;82;21086;-56
2022/03/27 11:17:49;;;;;;;2.37;1.40;;;;;;;9.74;26.14;99467.37;1744692;80;21014;-56
2022/03/27 11:20:28;;;;;;;4.20;1.70;;;;;;;9.83;26.29;99457.82;1743077;82;20998;-56
2022/03/27 11:22:59;;;;;;;3.98;2.52;;;;;;;9.94;25.91;99449.89;1743298;82;21231;-56
2022/03/27 11:25:44;;;;;;;3.17;1.67;;;;;;;9.90;26.90;99448.19;1743266;81;21014;-56
2022/03/27 11:28:11;;;;;;;6.03;1.20;;;;;;;9.98;26.79;99445.09;1742943;82;21351;-56
2022/03/27 11:30:50;;;;;;;;;;;;;;;10.02;26.68;99445.45;1752703;80;21041;-55
2022/03/27 11:33:29;;;;;;;2.02;1.15;;;;;;;10.09;26.88;99441.54;1743226;81;20165;-56
2022/03/27 11:36:11;;;;;;;4.85;2.10;;;;;;;10.21;26.48;99450.14;1743232;82;21065;-56
2022/03/27 11:39:02;;;;;;;19.48;8.43;;;;;;;10.20;26.63;99439.02;1762235;80;21061;-56
2022/03/27 11:41:44;;;;;;;24.72;10.75;;;;;;;10.25;26.09;99436.41;1743462;82;21342;-56
2022/03/27 11:47:20;;;;;;;5.67;3.02;;;;;;;10.44;26.32;99412.94;1743127;82;21030;-56
2022/03/27 11:49:49;;;;;;;3.77;2.40;;;;;;;10.44;26.32;99412.94;1750876;81;21044;-55
2022/03/27 11:52:20;;;;;;;3.15;1.62;;;;;;;10.61;26.86;99412.95;1743172;82;21033;-56
2022/03/27 11:54:47;;;;;;;6.25;2.02;;;;;;;10.61;26.86;99412.95;1743068;82;21065;-55
2022/03/27 11:57:16;;;;;;;3.17;1.77;;;;;;;10.66;26.20;99427.11;1743280;81;20990;-56
2022/03/27 11:59:48;;;;;;;5.33;1.95;;;;;;;10.51;25.84;99424.98;1743246;82;21013;-56
2022/03/27 12:02:17;;;;;;;5.42;1.72;;;;;;;10.56;26.55;99416.11;1743257;81;20975;-56